Huvudsida
METAR-TAF:

METAR-TAF

Flygplatser :

Oljeplattform

Sleipner, Norge

latitud: 58-22-00N, longitud: 001-54-25E, höjd: 50 m

Aktuellt väderrapport

Denna rapport gjordes för 20 minuter sedan, klockan 00:50 UTC
Vind 36 kt från sydost
Temperatur 9°C
Fuktighet 81%
Tryck 1011 hPa
Sikt 10 km eller mer

METAR: ENSL 230050Z AUTO 13036KT 9999NDV NCD 09/06 Q1011 W05/S4

Tid: 03:10 (01:10 UTC)

Väderprognos

Denna rapport gjordes för 14 timmar och 10 minuter sedan, klockan 11:00 UTC
Prognos gäller från 22 kl. 12 UTC till 22 kl. 17 UTC
Vind 30 kt från syd/sydost
Sikt 10 km eller mer
Inga moln under 1 500 m eller inga cumulonimbus

TAF: ENSL 221100Z 2212/2217 15030KT CAVOK

Aktuella väderrapporter och prognoser från 4000 flygplatser (METAR- och TAF-rapporter).

De tillgängliga stationerna syns som gula och röda prickar på kartan.

För musen över prickarna för att se namnen på stationerna.

Klicka sedan för att få väderrapporter och prognoser.

För att ändra kartan: Klicka på de gröna knapparna med ett svart kors på för att zooma in; den gröna knappen med ett streck på för att zooma ut; eller på de gröna pilarna för angränsande kartor.


METAR-TAF: